createdAt,value
2017-05-15T00:01:02.169Z,34.22
2017-05-15T00:03:30.805Z,31.84
2017-05-15T00:05:59.066Z,34.44
2017-05-15T00:08:28.382Z,35.54
2017-05-15T00:10:57.033Z,33.56
2017-05-15T00:13:25.685Z,38.50
2017-05-15T00:15:54.370Z,35.10
2017-05-15T00:18:23.022Z,37.08
2017-05-15T00:20:51.277Z,37.60
2017-05-15T00:23:20.575Z,38.68
2017-05-15T00:25:49.591Z,40.44
2017-05-15T00:28:18.238Z,40.50
2017-05-15T00:30:47.384Z,36.80
2017-05-15T00:33:15.633Z,37.28
2017-05-15T00:35:44.277Z,34.00
2017-05-15T00:38:12.949Z,35.80
2017-05-15T00:40:41.202Z,35.86
2017-05-15T00:43:09.855Z,37.32
2017-05-15T00:45:38.533Z,40.36
2017-05-15T00:48:07.186Z,36.32
2017-05-15T00:50:36.578Z,34.96
2017-05-15T00:53:04.865Z,34.78
2017-05-15T00:55:33.887Z,36.60
2017-05-15T00:58:02.130Z,37.54
2017-05-15T01:00:30.810Z,36.76
2017-05-15T01:02:59.457Z,36.68
2017-05-15T01:05:28.101Z,36.02
2017-05-15T01:07:57.151Z,41.02
2017-05-15T01:10:25.795Z,37.22
2017-05-15T01:12:54.438Z,35.50
2017-05-15T01:15:23.120Z,33.96
2017-05-15T01:17:51.771Z,37.70
2017-05-15T01:20:20.016Z,34.16
2017-05-15T01:22:48.862Z,34.58
2017-05-15T01:25:17.509Z,46.40
2017-05-15T01:27:46.154Z,39.40
2017-05-15T01:30:14.420Z,38.70
2017-05-15T01:32:43.437Z,43.20
2017-05-15T01:35:12.081Z,42.66
2017-05-15T01:37:40.994Z,43.26
2017-05-15T01:40:09.637Z,45.10
2017-05-15T01:42:38.289Z,46.06
2017-05-15T01:45:07.121Z,41.20
2017-05-15T01:47:35.765Z,43.04
2017-05-15T01:50:04.009Z,46.18
2017-05-15T01:52:32.593Z,45.76
2017-05-15T01:55:01.414Z,43.36
2017-05-15T01:57:30.059Z,48.36
2017-05-15T01:59:58.731Z,41.14
2017-05-15T02:02:27.747Z,41.78
2017-05-15T02:04:56.389Z,44.02
2017-05-15T02:07:25.106Z,43.54
2017-05-15T02:09:53.760Z,43.40
2017-05-15T02:12:22.010Z,41.74
2017-05-15T02:14:51.044Z,39.48
2017-05-15T02:17:20.069Z,41.90
2017-05-15T02:19:48.317Z,41.48
2017-05-15T02:22:16.980Z,41.00
2017-05-15T02:24:45.993Z,39.80
2017-05-15T02:27:14.641Z,40.30
2017-05-15T02:29:43.557Z,40.00
2017-05-15T02:32:12.569Z,34.60
2017-05-15T02:34:40.826Z,37.36
2017-05-15T02:37:09.710Z,47.96
2017-05-15T02:39:38.353Z,42.46
2017-05-15T02:42:06.999Z,37.62
2017-05-15T02:44:35.865Z,57.20
2017-05-15T02:47:04.509Z,46.20
2017-05-15T02:49:33.161Z,47.40
2017-05-15T02:52:02.239Z,37.36
2017-05-15T02:54:30.886Z,38.18
2017-05-15T02:56:59.901Z,38.58
2017-05-15T02:59:28.582Z,35.10
2017-05-15T03:01:57.594Z,35.02
2017-05-15T03:04:26.242Z,48.28
2017-05-15T03:06:55.295Z,42.18
2017-05-15T03:09:23.946Z,50.74
2017-05-15T03:11:52.599Z,52.30
2017-05-15T03:14:21.277Z,51.70
2017-05-15T03:16:49.917Z,43.86
2017-05-15T03:19:18.562Z,36.26
2017-05-15T03:21:47.244Z,32.96
2017-05-15T03:24:16.258Z,33.08
2017-05-15T03:26:44.910Z,34.74
2017-05-15T03:29:13.953Z,28.72
2017-05-15T03:31:42.602Z,26.94
2017-05-15T03:34:11.242Z,24.72
2017-05-15T03:36:40.169Z,22.36
2017-05-15T03:39:08.815Z,21.84
2017-05-15T03:41:37.077Z,25.48
2017-05-15T03:44:06.018Z,25.62
2017-05-15T03:46:35.040Z,24.50
2017-05-15T03:49:03.685Z,21.54
2017-05-15T03:51:32.726Z,25.48
2017-05-15T03:54:01.366Z,20.86
2017-05-15T03:56:29.621Z,21.42
2017-05-15T03:58:58.938Z,19.98
2017-05-15T04:01:27.958Z,25.54
2017-05-15T04:03:56.609Z,21.84
2017-05-15T04:06:25.294Z,20.70
2017-05-15T04:08:54.061Z,25.00
2017-05-15T04:11:22.316Z,23.84
2017-05-15T04:13:51.010Z,24.34
2017-05-15T04:16:19.661Z,20.84
2017-05-15T04:18:49.191Z,22.94
2017-05-15T04:21:17.802Z,25.06
2017-05-15T04:23:46.051Z,21.76
2017-05-15T04:26:14.698Z,23.18
2017-05-15T04:28:43.701Z,25.06
2017-05-15T04:31:11.953Z,24.44
2017-05-15T04:33:40.597Z,21.72
2017-05-15T04:36:09.734Z,20.46
2017-05-15T04:38:37.998Z,19.36
2017-05-15T04:41:06.645Z,21.18
2017-05-15T04:43:35.411Z,22.96
2017-05-15T04:46:04.053Z,22.44
2017-05-15T04:48:32.713Z,24.08
2017-05-15T04:51:00.991Z,22.58
2017-05-15T04:53:30.019Z,23.94
2017-05-15T04:55:58.666Z,26.64
2017-05-15T04:58:27.147Z,28.08
2017-05-15T05:00:56.280Z,25.52
2017-05-15T05:03:24.929Z,25.66
2017-05-15T05:05:53.597Z,26.88
2017-05-15T05:08:22.626Z,29.22
2017-05-15T05:10:50.886Z,27.02
2017-05-15T05:13:19.864Z,36.86
2017-05-15T05:15:48.881Z,26.46
2017-05-15T05:18:17.527Z,25.62
2017-05-15T05:21:08.311Z,26.72
2017-05-15T05:23:48.722Z,22.46
2017-05-15T05:26:39.292Z,19.94
2017-05-15T05:29:20.074Z,19.42
2017-05-15T05:32:00.706Z,19.54
2017-05-15T05:34:58.000Z,19.14
2017-05-15T05:37:47.285Z,18.86
2017-05-15T05:40:26.525Z,19.78
2017-05-15T05:43:07.347Z,21.28
2017-05-15T05:45:35.996Z,22.90
2017-05-15T05:48:04.681Z,22.04
2017-05-15T05:50:33.600Z,24.70
2017-05-15T05:53:01.853Z,19.74
2017-05-15T06:29:18.497Z,17.32
2017-05-15T06:31:47.145Z,17.50
2017-05-15T06:34:16.162Z,17.30
2017-05-15T06:36:44.434Z,18.46
2017-05-15T06:39:26.385Z,17.34
2017-05-15T06:42:15.766Z,17.60
2017-05-15T06:44:44.441Z,14.94
2017-05-15T06:47:13.057Z,15.12
2017-05-15T06:49:42.041Z,17.18
2017-05-15T06:52:10.694Z,15.18
2017-05-15T06:54:39.334Z,15.60
2017-05-15T06:57:08.285Z,13.20
2017-05-15T06:59:36.925Z,14.66
2017-05-15T07:02:05.575Z,16.98
2017-05-15T07:04:34.694Z,18.86
2017-05-15T07:07:02.844Z,14.42
2017-05-15T07:09:31.493Z,12.78
2017-05-15T07:12:00.318Z,19.40
2017-05-15T07:14:29.179Z,17.10
2017-05-15T07:16:57.801Z,22.66
2017-05-15T07:19:26.384Z,13.36
2017-05-15T07:21:55.045Z,14.86
2017-05-15T07:24:24.069Z,17.10
2017-05-15T07:26:52.837Z,24.58
2017-05-15T07:29:21.498Z,14.56
2017-05-15T07:31:50.531Z,13.56
2017-05-15T07:34:19.194Z,15.92
2017-05-15T07:36:47.836Z,12.32
2017-05-15T07:39:16.485Z,16.42
2017-05-15T07:41:45.427Z,26.50
2017-05-15T07:44:15.118Z,15.18
2017-05-15T07:46:43.885Z,18.02
2017-05-15T07:49:12.517Z,17.36
2017-05-15T07:51:41.169Z,14.72
2017-05-15T07:54:09.822Z,22.78
2017-05-15T07:56:38.512Z,25.32
2017-05-15T07:59:07.165Z,13.06
2017-05-15T08:01:35.997Z,37.00
2017-05-15T08:04:04.677Z,18.46
2017-05-15T08:06:34.318Z,17.74
2017-05-15T08:09:03.356Z,20.76
2017-05-15T08:11:32.307Z,14.14
2017-05-15T08:14:00.959Z,14.36
2017-05-15T08:16:29.496Z,17.84
2017-05-15T08:18:57.940Z,13.72
2017-05-15T08:21:27.761Z,14.68
2017-05-15T08:23:56.414Z,11.06
2017-05-15T08:26:25.078Z,11.28
2017-05-15T08:28:53.740Z,11.94
2017-05-15T08:31:22.400Z,13.52
2017-05-15T08:33:51.391Z,11.54
2017-05-15T08:36:19.636Z,11.50
2017-05-15T08:38:48.304Z,10.78
2017-05-15T08:41:17.074Z,10.14
2017-05-15T08:43:45.720Z,9.72
2017-05-15T08:46:14.353Z,11.34
2017-05-15T08:48:43.045Z,12.38
2017-05-15T08:51:11.700Z,9.30
2017-05-15T08:53:40.338Z,9.76
2017-05-15T08:56:09.389Z,9.66
2017-05-15T08:58:38.037Z,10.12
2017-05-15T09:01:06.670Z,9.80
2017-05-15T09:03:35.289Z,12.54
2017-05-15T09:06:03.943Z,10.56
2017-05-15T09:08:33.008Z,11.84
2017-05-15T09:11:01.884Z,9.42
2017-05-15T09:13:30.526Z,10.24
2017-05-15T09:15:59.167Z,9.38
2017-05-15T09:18:27.812Z,9.24
2017-05-15T09:20:56.456Z,9.60
2017-05-15T09:23:24.712Z,12.38
2017-05-15T09:25:53.477Z,12.06
2017-05-15T09:28:22.144Z,8.46
2017-05-15T09:30:50.397Z,11.66
2017-05-15T09:33:18.687Z,75.18
2017-05-15T09:35:47.336Z,15.26
2017-05-15T09:38:16.359Z,8.34
2017-05-15T09:40:45.054Z,9.14
2017-05-15T09:43:13.307Z,9.44
2017-05-15T09:45:41.941Z,7.80
2017-05-15T09:48:11.010Z,10.60
2017-05-15T09:50:39.232Z,10.42
2017-05-15T09:53:08.354Z,9.40
2017-05-15T09:55:37.008Z,7.94
2017-05-15T09:58:05.267Z,12.50
2017-05-15T10:00:33.927Z,7.54
2017-05-15T10:03:02.985Z,7.90
2017-05-15T10:05:31.221Z,7.78
2017-05-15T10:07:59.465Z,9.54
2017-05-15T10:10:28.227Z,12.12
2017-05-15T10:12:56.884Z,20.02
2017-05-15T10:15:25.905Z,7.78
2017-05-15T10:17:54.439Z,8.88
2017-05-15T10:20:23.054Z,9.04
2017-05-15T10:22:51.694Z,6.14
2017-05-15T10:25:20.931Z,6.46
2017-05-15T10:27:49.569Z,7.00
2017-05-15T10:30:18.212Z,6.20
2017-05-15T10:32:47.181Z,6.32
2017-05-15T10:35:16.192Z,5.44
2017-05-15T10:37:44.828Z,7.08
2017-05-15T10:40:13.748Z,6.68
2017-05-15T10:42:43.900Z,5.70
2017-05-15T10:45:12.526Z,6.04
2017-05-15T10:47:41.641Z,4.60
2017-05-15T10:50:10.294Z,4.42
2017-05-15T10:52:38.529Z,4.92
2017-05-15T10:55:07.198Z,4.56
2017-05-15T10:57:35.441Z,4.84
2017-05-15T11:00:04.077Z,5.86
2017-05-15T11:02:32.763Z,3.58
2017-05-15T11:05:01.401Z,4.90
2017-05-15T11:07:30.052Z,5.08
2017-05-15T11:09:59.088Z,28.22
2017-05-15T11:12:27.744Z,7.96
2017-05-15T11:14:56.740Z,5.90
2017-05-15T11:17:25.221Z,6.28
2017-05-15T11:19:54.225Z,4.68
2017-05-15T11:22:22.471Z,3.72
2017-05-15T11:24:51.221Z,5.18
2017-05-15T11:27:20.085Z,4.84
2017-05-15T11:29:49.069Z,4.66
2017-05-15T11:32:18.049Z,3.46
2017-05-15T11:34:46.298Z,3.54
2017-05-15T11:37:14.553Z,4.96
2017-05-15T11:39:43.285Z,4.32
2017-05-15T11:42:11.934Z,5.88
2017-05-15T11:44:40.578Z,29.84
2017-05-15T11:47:09.250Z,15.80
2017-05-15T11:49:37.899Z,6.04
2017-05-15T11:52:06.543Z,7.24
2017-05-15T11:54:35.227Z,10.72
2017-05-15T11:57:04.115Z,7.10
2017-05-15T11:59:32.767Z,3.86
2017-05-15T12:02:01.420Z,3.66
2017-05-15T12:04:29.685Z,12.16
2017-05-15T12:06:58.347Z,5.68
2017-05-15T12:09:27.026Z,7.60
2017-05-15T12:11:55.672Z,4.44
2017-05-15T12:14:24.311Z,3.50
2017-05-15T12:16:53.119Z,4.02
2017-05-15T12:19:22.122Z,2.90
2017-05-15T12:21:50.763Z,3.44
2017-05-15T12:24:19.693Z,3.64
2017-05-15T12:26:48.705Z,4.70
2017-05-15T12:29:17.353Z,9.10
2017-05-15T12:31:46.362Z,17.10
2017-05-15T12:34:14.598Z,6.02
2017-05-15T12:36:43.228Z,3.88
2017-05-15T12:39:11.906Z,5.16
2017-05-15T12:41:40.551Z,4.38
2017-05-15T12:44:08.808Z,9.48
2017-05-15T12:46:37.474Z,3.78
2017-05-15T12:49:06.124Z,4.36
2017-05-15T12:51:34.417Z,2.76
2017-05-15T12:54:03.242Z,6.38
2017-05-15T12:56:31.877Z,8.96
2017-05-15T12:59:00.529Z,2.82
2017-05-15T13:01:29.285Z,4.74
2017-05-15T13:03:57.921Z,5.12
2017-05-15T13:06:26.175Z,2.04
2017-05-15T13:08:54.855Z,3.92
2017-05-15T13:11:23.503Z,2.46
2017-05-15T13:13:52.132Z,2.76
2017-05-15T13:16:21.447Z,2.72
2017-05-15T13:18:50.100Z,2.82
2017-05-15T13:21:18.729Z,2.12
2017-05-15T13:23:47.399Z,3.26
2017-05-15T13:26:16.038Z,3.32
2017-05-15T13:28:45.008Z,3.42
2017-05-15T13:31:13.289Z,18.42
2017-05-15T13:33:41.933Z,3.46
2017-05-15T13:36:10.579Z,3.72
2017-05-15T13:38:39.250Z,2.72
2017-05-15T13:41:07.877Z,3.28
2017-05-15T13:43:36.532Z,35.34
2017-05-15T13:46:05.451Z,18.44
2017-05-15T13:48:34.108Z,3.16
2017-05-15T13:51:02.742Z,3.82
2017-05-15T13:53:31.017Z,2.20
2017-05-15T13:55:59.678Z,3.00
2017-05-15T13:58:28.450Z,4.62
2017-05-15T14:00:57.375Z,2.50
2017-05-15T14:03:26.013Z,3.16
2017-05-15T14:05:55.022Z,3.52
2017-05-15T14:08:23.689Z,3.86
2017-05-15T14:10:52.689Z,3.08
2017-05-15T14:13:21.690Z,3.14
2017-05-15T14:15:50.562Z,2.82
2017-05-15T14:18:19.569Z,4.18
2017-05-15T14:20:48.226Z,2.06
2017-05-15T14:23:16.895Z,2.74
2017-05-15T14:25:45.545Z,2.66
2017-05-15T14:28:14.185Z,4.86
2017-05-15T14:30:43.630Z,2.20
2017-05-15T14:33:13.117Z,2.42
2017-05-15T14:35:42.733Z,2.40
2017-05-15T14:38:11.417Z,5.22
2017-05-15T14:40:39.661Z,7.74
2017-05-15T14:43:08.680Z,4.70
2017-05-15T14:45:37.495Z,3.08
2017-05-15T14:48:06.144Z,2.36
2017-05-15T14:50:34.781Z,2.82
2017-05-15T14:53:03.453Z,8.96
2017-05-15T14:55:32.112Z,22.42
2017-05-15T14:58:00.757Z,16.58
2017-05-15T15:00:29.694Z,4.38
2017-05-15T15:02:58.341Z,2.30
2017-05-15T15:05:26.975Z,3.90
2017-05-15T15:07:55.653Z,2.44
2017-05-15T15:10:24.301Z,3.72
2017-05-15T15:12:52.952Z,12.82
2017-05-15T15:15:21.986Z,6.82
2017-05-15T15:17:50.901Z,6.16
2017-05-15T15:20:20.447Z,2.62
2017-05-15T15:22:49.491Z,3.22
2017-05-15T15:25:18.140Z,5.76
2017-05-15T15:27:46.788Z,3.78
2017-05-15T15:30:15.073Z,4.76
2017-05-15T15:32:43.333Z,2.58
2017-05-15T15:35:11.883Z,2.58
2017-05-15T15:37:40.551Z,2.30
2017-05-15T15:40:08.797Z,12.50
2017-05-15T15:42:37.067Z,11.80
2017-05-15T15:45:06.563Z,4.14
2017-05-15T15:47:34.810Z,4.80
2017-05-15T15:50:03.459Z,4.66
2017-05-15T15:52:32.427Z,5.20
2017-05-15T15:55:00.669Z,3.24
2017-05-15T15:57:29.298Z,3.32
2017-05-15T15:59:58.308Z,3.88
2017-05-15T16:02:26.946Z,2.70
2017-05-15T16:04:55.666Z,4.48
2017-05-15T16:07:24.957Z,5.32
2017-05-15T16:09:55.149Z,10.92
2017-05-15T16:12:24.072Z,10.90
2017-05-15T16:14:52.731Z,4.98
2017-05-15T16:17:22.259Z,4.00
2017-05-15T16:19:52.269Z,6.40
2017-05-15T16:22:20.915Z,5.32
2017-05-15T16:24:50.539Z,4.34
2017-05-15T16:27:19.534Z,6.10
2017-05-15T16:29:49.109Z,17.28
2017-05-15T16:32:18.860Z,44.52
2017-05-15T16:34:47.132Z,23.88
2017-05-15T16:37:15.787Z,6.22
2017-05-15T16:39:44.860Z,4.84
2017-05-15T16:42:13.500Z,3.56
2017-05-15T16:44:41.744Z,6.94
2017-05-15T16:47:10.032Z,5.52
2017-05-15T16:49:38.690Z,6.10
2017-05-15T16:52:08.671Z,5.84
2017-05-15T16:54:37.335Z,3.46
2017-05-15T16:57:06.014Z,7.16
2017-05-15T16:59:34.638Z,5.00
2017-05-15T17:02:02.913Z,6.94
2017-05-15T17:04:31.828Z,8.82
2017-05-15T17:07:01.025Z,8.60
2017-05-15T17:09:30.297Z,5.54
2017-05-15T17:11:58.939Z,67.50
2017-05-15T17:14:27.960Z,99.84
2017-05-15T17:16:58.300Z,49.24
2017-05-15T17:19:28.308Z,25.26
2017-05-15T17:21:58.690Z,10.06
2017-05-15T17:24:27.353Z,13.68
2017-05-15T17:26:56.033Z,10.48
2017-05-15T17:29:24.752Z,9.38
2017-05-15T17:31:53.029Z,7.78
2017-05-15T17:34:22.426Z,6.14
2017-05-15T17:36:51.448Z,7.42
2017-05-15T17:39:20.436Z,7.62
2017-05-15T17:41:49.063Z,6.76
2017-05-15T17:44:17.730Z,37.04
2017-05-15T17:46:45.986Z,25.26
2017-05-15T17:49:16.196Z,12.70
2017-05-15T17:51:44.841Z,9.48
2017-05-15T17:54:13.482Z,6.16
2017-05-15T17:56:42.540Z,6.16
2017-05-15T17:59:11.514Z,7.72
2017-05-15T18:01:40.056Z,8.14
2017-05-15T18:04:09.099Z,4.78
2017-05-15T18:06:37.781Z,7.92
2017-05-15T18:09:07.436Z,7.90
2017-05-15T18:11:36.541Z,64.02
2017-05-15T18:14:05.316Z,134.50
2017-05-15T18:16:33.990Z,45.00
2017-05-15T18:19:03.127Z,31.72
2017-05-15T18:21:32.034Z,15.38
2017-05-15T18:24:00.695Z,21.10
2017-05-15T18:26:29.365Z,17.02
2017-05-15T18:28:57.669Z,15.34
2017-05-15T18:31:26.366Z,16.64
2017-05-15T18:33:55.025Z,14.18
2017-05-15T18:36:23.699Z,12.78
2017-05-15T18:38:52.255Z,17.46
2017-05-15T18:41:21.304Z,9.70
2017-05-15T18:43:49.937Z,13.54
2017-05-15T18:46:18.645Z,24.60
2017-05-15T18:48:47.319Z,49.56
2017-05-15T18:51:15.826Z,37.50
2017-05-15T18:53:45.101Z,23.42
2017-05-15T18:56:13.867Z,52.24
2017-05-15T18:58:42.658Z,33.02
2017-05-15T19:01:11.482Z,24.56
2017-05-15T19:03:40.083Z,23.32
2017-05-15T19:06:09.684Z,28.42
2017-05-15T19:08:39.319Z,23.48
2017-05-15T19:11:09.379Z,45.46
2017-05-15T19:13:39.326Z,114.14
2017-05-15T19:16:08.940Z,56.70
2017-05-15T19:18:40.234Z,26.06
2017-05-15T19:21:10.137Z,18.95
2017-05-15T19:23:39.750Z,15.16
2017-05-15T19:26:09.963Z,15.17
2017-05-15T19:28:39.819Z,17.84
2017-05-15T19:31:10.273Z,13.82
2017-05-15T19:33:39.833Z,12.84
2017-05-15T19:36:09.442Z,9.72
2017-05-15T19:38:39.608Z,9.50
2017-05-15T19:41:09.390Z,6.06
2017-05-15T19:43:39.444Z,5.32
2017-05-15T19:46:09.825Z,5.28
2017-05-15T19:48:41.041Z,6.06
2017-05-15T19:51:10.822Z,4.94
2017-05-15T19:53:41.010Z,9.90
2017-05-15T19:56:11.615Z,4.64
2017-05-15T19:58:41.336Z,10.62
2017-05-15T20:01:12.170Z,2.72
2017-05-15T20:03:41.690Z,6.68
2017-05-15T20:06:11.342Z,4.96
2017-05-15T20:08:42.402Z,14.46
2017-05-15T20:11:11.200Z,7.58
2017-05-15T20:13:40.576Z,8.12
2017-05-15T20:16:09.755Z,7.36
2017-05-15T20:18:39.010Z,4.62
2017-05-15T20:21:07.751Z,4.22
2017-05-15T20:23:36.755Z,6.60
2017-05-15T20:26:05.013Z,3.16
2017-05-15T20:28:33.253Z,4.06
2017-05-15T20:31:02.577Z,7.80
2017-05-15T20:33:31.630Z,8.02
2017-05-15T20:36:00.266Z,9.28
2017-05-15T20:38:28.956Z,6.02
2017-05-15T20:40:57.627Z,4.18
2017-05-15T20:43:26.275Z,5.40
2017-05-15T20:45:55.486Z,3.50
2017-05-15T20:48:25.096Z,6.00
2017-05-15T20:50:53.743Z,4.22
2017-05-15T20:53:22.720Z,3.62
2017-05-15T20:55:51.409Z,4.38
2017-05-15T20:58:20.041Z,6.52
2017-05-15T21:00:49.801Z,4.78
2017-05-15T21:03:18.448Z,5.10
2017-05-15T21:05:47.449Z,5.77
2017-05-15T21:08:16.097Z,5.20
2017-05-15T21:10:45.117Z,5.38
2017-05-15T21:13:13.786Z,10.98
2017-05-15T21:15:42.426Z,4.70
2017-05-15T21:18:11.085Z,5.80
2017-05-15T21:20:39.763Z,5.84
2017-05-15T21:23:08.407Z,5.92
2017-05-15T21:25:36.661Z,11.10
2017-05-15T21:28:04.966Z,8.58
2017-05-15T21:30:33.613Z,6.92
2017-05-15T21:33:02.264Z,5.12
2017-05-15T21:35:30.924Z,7.16
2017-05-15T21:37:59.171Z,6.24
2017-05-15T21:40:27.428Z,5.84
2017-05-15T21:42:56.106Z,7.00
2017-05-15T21:45:24.734Z,6.66
2017-05-15T21:47:53.370Z,4.28
2017-05-15T21:50:21.630Z,6.82
2017-05-15T21:52:50.266Z,39.06
2017-05-15T21:55:18.919Z,8.62
2017-05-15T21:57:47.970Z,10.50
2017-05-15T22:00:16.841Z,6.16
2017-05-15T22:02:45.495Z,7.38
2017-05-15T22:05:14.537Z,6.34
2017-05-15T22:07:43.177Z,9.20
2017-05-15T22:10:11.828Z,10.12
2017-05-15T22:12:40.240Z,8.36
2017-05-15T22:15:08.878Z,5.28
2017-05-15T22:17:37.524Z,5.96
2017-05-15T22:20:06.337Z,4.30
2017-05-15T22:22:34.976Z,5.64
2017-05-15T22:25:03.605Z,3.82
2017-05-15T22:27:32.649Z,5.72
2017-05-15T22:30:01.283Z,7.48
2017-05-15T22:32:29.926Z,10.48
2017-05-15T22:34:58.581Z,6.48
2017-05-15T22:37:27.598Z,4.30
2017-05-15T22:39:56.242Z,6.08
2017-05-15T22:42:24.907Z,4.58
2017-05-15T22:44:53.555Z,3.42
2017-05-15T22:47:22.204Z,5.56
2017-05-15T22:49:51.617Z,5.70
2017-05-15T22:52:20.629Z,5.16
2017-05-15T22:54:49.265Z,4.68
2017-05-15T22:57:18.498Z,6.56
2017-05-15T22:59:47.133Z,4.54
2017-05-15T23:02:15.388Z,4.02
2017-05-15T23:04:44.035Z,3.48
2017-05-15T23:07:12.670Z,4.30
2017-05-15T23:09:41.298Z,4.60
2017-05-15T23:12:09.984Z,5.76
2017-05-15T23:14:38.225Z,5.32
2017-05-15T23:17:06.866Z,6.10
2017-05-15T23:19:35.531Z,4.66
2017-05-15T23:22:04.181Z,3.78
2017-05-15T23:24:32.808Z,5.26
2017-05-15T23:27:01.557Z,4.90
2017-05-15T23:29:29.802Z,5.22
2017-05-15T23:31:58.438Z,5.60
2017-05-15T23:34:26.791Z,6.54
2017-05-15T23:36:55.797Z,3.82
2017-05-15T23:39:24.451Z,3.28
2017-05-15T23:41:52.723Z,6.32
2017-05-15T23:44:21.363Z,3.90
2017-05-15T23:46:49.991Z,3.46
2017-05-15T23:49:18.903Z,5.72
2017-05-15T23:51:47.144Z,5.22
2017-05-15T23:54:15.768Z,7.18
2017-05-15T23:56:44.026Z,5.08
2017-05-15T23:59:12.661Z,3.04
